Time;durP1;ratioP1;P1;durP2;ratioP2;P2;SDS_P1;SDS_P2;PMS_P1;PMS_P2;Temp;Humidity;BMP_temperature;BMP_pressure;BME280_temperature;BME280_humidity;BME280_pressure;Samples;Min_cycle;Max_cycle;Signal;HPM_P1;HPM_P2
2023/04/22 00:02:07;;;;;;;8.70;7.90;;;12.20;99.90;;;;;;4993404;28;20175;-75
2023/04/22 00:04:33;;;;;;;8.43;7.73;;;12.20;99.90;;;;;;4992552;28;20212;-75
2023/04/22 00:06:59;;;;;;;9.07;8.00;;;12.30;99.90;;;;;;4993101;28;20184;-75
2023/04/22 00:09:25;;;;;;;7.80;7.10;;;12.30;99.90;;;;;;4992774;28;20167;-76
2023/04/22 00:11:51;;;;;;;7.40;6.80;;;12.10;99.90;;;;;;4993198;28;20899;-75
2023/04/22 00:14:17;;;;;;;6.90;6.40;;;12.10;99.90;;;;;;4993192;28;20628;-75
2023/04/22 00:16:43;;;;;;;6.27;5.70;;;12.20;99.90;;;;;;4992531;28;20413;-75
2023/04/22 00:19:08;;;;;;;6.30;5.80;;;12.30;99.90;;;;;;4992770;28;20415;-75
2023/04/22 00:21:34;;;;;;;6.50;6.00;;;12.30;99.90;;;;;;4992458;28;20269;-75
2023/04/22 00:24:00;;;;;;;7.50;6.90;;;12.30;99.90;;;;;;4992647;28;20200;-75
2023/04/22 00:26:26;;;;;;;7.30;6.60;;;12.40;99.90;;;;;;4992455;28;20177;-75
2023/04/22 00:28:52;;;;;;;7.53;6.73;;;12.30;99.90;;;;;;4993039;28;20406;-75
2023/04/22 00:31:18;;;;;;;7.10;6.40;;;12.30;99.90;;;;;;4993485;28;20958;-75
2023/04/22 00:33:43;;;;;;;7.03;6.53;;;12.30;99.90;;;;;;4996374;28;20187;-75
2023/04/22 00:36:09;;;;;;;6.63;6.03;;;12.20;99.90;;;;;;4996600;28;20169;-75
2023/04/22 00:38:35;;;;;;;8.03;7.23;;;12.20;99.90;;;;;;4994617;28;20243;-75
2023/04/22 00:41:01;;;;;;;9.20;8.30;;;12.10;99.90;;;;;;4997023;28;20191;-75
2023/04/22 00:43:27;;;;;;;8.67;7.73;;;12.10;99.90;;;;;;4995710;28;20213;-74
2023/04/22 00:45:54;;;;;;;8.93;8.17;;;12.10;99.90;;;;;;4996724;28;20762;-75
2023/04/22 00:48:20;;;;;;;10.50;8.20;;;12.10;99.90;;;;;;4996931;28;20395;-75
2023/04/22 00:50:45;;;;;;;8.20;7.50;;;12.10;99.90;;;;;;4996057;28;20432;-75
2023/04/22 00:53:11;;;;;;;7.87;7.27;;;12.00;99.90;;;;;;4996574;28;20420;-75
2023/04/22 00:55:37;;;;;;;8.43;7.73;;;12.00;99.90;;;;;;4995964;28;20528;-75
2023/04/22 00:58:03;;;;;;;8.57;7.87;;;12.00;99.90;;;;;;4996509;28;20183;-75
2023/04/22 01:00:29;;;;;;;8.73;7.90;;;12.00;99.90;;;;;;4996078;28;20522;-75
2023/04/22 01:02:56;;;;;;;8.63;7.90;;;12.00;99.90;;;;;;4995982;28;20450;-75
2023/04/22 01:05:23;;;;;;;8.43;7.63;;;12.10;99.90;;;;;;4996447;28;20461;-75
2023/04/22 01:07:50;;;;;;;7.40;6.80;;;12.00;99.90;;;;;;4995544;28;20749;-75
2023/04/22 01:10:17;;;;;;;7.73;7.13;;;12.00;99.90;;;;;;4996391;28;20420;-76
2023/04/22 01:12:42;;;;;;;7.97;7.27;;;12.00;99.90;;;;;;4995623;28;20410;-76
2023/04/22 01:15:08;;;;;;;8.10;7.30;;;12.00;99.90;;;;;;4996107;28;20407;-75
2023/04/22 01:17:34;;;;;;;7.77;7.17;;;12.00;99.90;;;;;;4995314;28;20578;-75
2023/04/22 01:20:04;;;;;;;8.00;7.27;;;12.00;99.90;;;;;;4996056;28;20454;-75
2023/04/22 01:22:34;;;;;;;8.00;6.87;;;12.00;99.90;;;;;;5010703;28;20176;-75
2023/04/22 01:25:01;;;;;;;8.17;7.47;;;12.00;99.90;;;;;;4996161;28;20522;-75
2023/04/22 01:27:27;;;;;;;7.30;6.67;;;12.00;99.90;;;;;;4995040;28;20959;-76
2023/04/22 01:29:53;;;;;;;7.03;6.43;;;12.00;99.90;;;;;;4996248;28;20411;-75
2023/04/22 01:32:19;;;;;;;7.80;7.10;;;11.90;99.90;;;;;;4994802;28;20746;-75
2023/04/22 01:34:45;;;;;;;8.47;7.63;;;11.90;99.90;;;;;;4995198;28;20441;-75
2023/04/22 01:37:11;;;;;;;8.70;8.00;;;11.90;99.90;;;;;;5000174;28;20890;-75
2023/04/22 01:39:37;;;;;;;8.30;7.60;;;11.90;99.90;;;;;;5014739;28;20193;-75
2023/04/22 01:42:03;;;;;;;9.03;8.30;;;11.90;99.90;;;;;;5015001;28;20212;-75
2023/04/22 01:44:29;;;;;;;8.33;7.53;;;11.90;99.90;;;;;;5013608;28;20501;-76
2023/04/22 01:46:54;;;;;;;7.97;7.37;;;11.90;99.90;;;;;;5015096;28;20828;-75
2023/04/22 01:49:20;;;;;;;7.73;7.10;;;11.90;99.90;;;;;;5015133;28;20406;-75
2023/04/22 01:51:46;;;;;;;9.23;8.13;;;11.90;99.90;;;;;;5014467;28;20169;-75
2023/04/22 01:54:15;;;;;;;8.67;7.97;;;11.80;99.90;;;;;;5014993;28;20215;-75
2023/04/22 01:56:42;;;;;;;8.80;8.10;;;11.80;99.90;;;;;;5014614;28;20179;-75
2023/04/22 01:59:08;;;;;;;9.07;8.17;;;11.80;99.90;;;;;;5014951;28;20410;-76
2023/04/22 02:01:34;;;;;;;8.77;8.00;;;11.80;99.90;;;;;;5014317;28;20766;-75
2023/04/22 02:04:00;;;;;;;11.00;8.43;;;11.90;99.90;;;;;;5014782;28;20225;-75
2023/04/22 02:06:26;;;;;;;8.13;7.43;;;11.90;99.90;;;;;;5014488;28;20426;-75
2023/04/22 02:08:52;;;;;;;8.50;7.70;;;11.90;99.90;;;;;;5013850;28;20186;-75
2023/04/22 02:11:17;;;;;;;9.43;8.53;;;11.90;99.90;;;;;;5014317;28;20410;-75
2023/04/22 02:13:43;;;;;;;8.47;7.67;;;11.80;99.90;;;;;;5014042;28;20464;-75
2023/04/22 02:16:10;;;;;;;9.07;8.37;;;11.80;99.90;;;;;;5014632;28;20211;-75
2023/04/22 02:18:35;;;;;;;8.87;8.07;;;11.80;99.90;;;;;;5013642;28;21005;-75
2023/04/22 02:21:01;;;;;;;8.50;7.80;;;11.90;99.90;;;;;;5014544;28;20505;-75
2023/04/22 02:23:27;;;;;;;8.47;7.77;;;11.90;99.90;;;;;;5014442;28;20449;-76
2023/04/22 02:25:54;;;;;;;9.07;8.30;;;11.80;99.90;;;;;;5013794;28;20181;-75
2023/04/22 02:28:20;;;;;;;8.13;7.30;;;11.80;99.90;;;;;;5014372;28;20406;-75
2023/04/22 02:30:46;;;;;;;8.63;7.97;;;11.80;99.90;;;;;;4996263;28;20413;-76
2023/04/22 02:33:12;;;;;;;8.23;7.53;;;11.80;99.90;;;;;;5014558;28;20210;-75
2023/04/22 02:35:38;;;;;;;7.70;7.10;;;11.80;99.90;;;;;;5013719;28;20410;-75
2023/04/22 02:38:04;;;;;;;8.27;7.67;;;11.80;99.90;;;;;;5014002;28;20216;-75
2023/04/22 02:40:30;;;;;;;8.73;7.90;;;11.50;99.90;;;;;;4996671;28;20430;-75
2023/04/22 02:42:56;;;;;;;7.97;7.33;;;11.60;99.90;;;;;;5014532;28;20194;-75
2023/04/22 02:45:21;;;;;;;7.77;7.17;;;11.60;99.90;;;;;;5014152;28;20413;-75
2023/04/22 02:47:47;;;;;;;7.77;7.17;;;11.70;99.90;;;;;;5013366;28;20173;-76
2023/04/22 02:50:13;;;;;;;6.80;6.30;;;11.70;99.90;;;;;;5013758;28;20690;-75
2023/04/22 02:52:39;;;;;;;7.90;7.10;;;11.70;99.90;;;;;;5013027;28;20177;-75
2023/04/22 02:55:05;;;;;;;7.70;7.10;;;11.70;99.90;;;;;;5013946;28;20178;-75
2023/04/22 02:57:31;;;;;;;7.47;6.83;;;11.80;99.90;;;;;;5013814;28;20422;-75
2023/04/22 02:59:57;;;;;;;8.00;7.30;;;11.80;99.90;;;;;;5013799;28;20504;-75
2023/04/22 03:02:22;;;;;;;8.37;7.10;;;11.80;99.90;;;;;;5013698;28;20496;-76
2023/04/22 03:04:48;;;;;;;7.53;6.87;;;11.80;99.90;;;;;;5013040;28;20213;-75
2023/04/22 03:07:14;;;;;;;6.83;6.30;;;11.80;99.90;;;;;;4996329;28;20199;-75
2023/04/22 03:09:40;;;;;;;7.90;7.13;;;11.80;99.90;;;;;;5013052;28;20176;-75
2023/04/22 03:12:05;;;;;;;8.57;7.27;;;11.80;99.90;;;;;;5013647;28;20175;-75
2023/04/22 03:14:31;;;;;;;9.43;8.50;;;11.80;99.90;;;;;;5013769;28;20511;-75
2023/04/22 03:16:57;;;;;;;8.97;8.27;;;11.80;99.90;;;;;;5013182;28;20532;-75
2023/04/22 03:19:22;;;;;;;10.10;9.10;;;11.80;99.90;;;;;;5013505;28;20190;-76
2023/04/22 03:21:48;;;;;;;10.13;9.23;;;11.80;99.90;;;;;;4995304;28;20213;-75
2023/04/22 03:24:14;;;;;;;8.93;8.13;;;11.80;99.90;;;;;;5013323;28;20218;-75
2023/04/22 03:26:40;;;;;;;8.63;7.90;;;11.80;99.90;;;;;;5012751;28;20224;-75
2023/04/22 03:29:08;;;;;;;9.10;8.20;;;11.80;99.90;;;;;;5013429;28;20176;-75
2023/04/22 03:31:34;;;;;;;8.93;7.93;;;11.80;99.90;;;;;;5012605;28;20179;-76
2023/04/22 03:34:00;;;;;;;9.07;8.17;;;11.80;99.90;;;;;;4995586;28;20418;-75
2023/04/22 03:36:27;;;;;;;8.80;8.00;;;11.80;99.90;;;;;;5012913;28;20259;-75
2023/04/22 03:38:52;;;;;;;9.67;8.67;;;11.80;99.90;;;;;;5012129;28;20458;-75
2023/04/22 03:41:18;;;;;;;9.20;8.40;;;11.80;99.90;;;;;;5013093;28;20508;-75
2023/04/22 03:43:44;;;;;;;9.10;8.30;;;11.80;99.90;;;;;;5012469;28;20532;-75
2023/04/22 03:46:09;;;;;;;9.27;8.37;;;11.80;99.90;;;;;;5013061;28;20170;-75
2023/04/22 03:48:35;;;;;;;8.60;7.80;;;11.90;99.90;;;;;;5011844;28;20171;-77
2023/04/22 03:51:01;;;;;;;8.40;7.70;;;11.90;99.90;;;;;;5013029;28;20567;-75
2023/04/22 03:53:27;;;;;;;8.93;8.17;;;11.80;99.90;;;;;;5012954;28;20276;-75
2023/04/22 03:55:53;;;;;;;9.20;8.40;;;11.80;99.90;;;;;;5012363;28;20496;-75
2023/04/22 03:58:19;;;;;;;9.13;8.43;;;11.80;99.90;;;;;;5012775;28;20405;-75
2023/04/22 04:00:45;;;;;;;9.73;8.70;;;11.80;99.90;;;;;;5012006;28;20171;-75
2023/04/22 04:03:10;;;;;;;9.73;8.93;;;11.80;99.90;;;;;;4995263;28;20216;-75
2023/04/22 04:05:36;;;;;;;9.13;8.27;;;11.90;99.90;;;;;;4994622;28;20178;-77
2023/04/22 04:08:02;;;;;;;10.80;9.13;;;11.80;99.90;;;;;;5012292;28;20181;-75
2023/04/22 04:10:28;;;;;;;9.57;8.77;;;11.80;99.90;;;;;;4995146;28;20229;-75
2023/04/22 04:12:54;;;;;;;10.00;8.97;;;11.80;99.90;;;;;;5012488;28;20411;-75
2023/04/22 04:15:20;;;;;;;9.20;8.40;;;11.90;99.90;;;;;;5012745;28;20250;-75
2023/04/22 04:17:47;;;;;;;9.07;8.23;;;11.90;99.90;;;;;;5012010;28;20171;-75
2023/04/22 04:20:14;;;;;;;9.43;8.50;;;11.90;99.90;;;;;;5012680;28;20402;-75
2023/04/22 04:22:40;;;;;;;9.60;8.70;;;11.90;99.90;;;;;;5012053;28;20507;-75
2023/04/22 04:25:07;;;;;;;9.90;9.03;;;11.90;99.90;;;;;;5012446;28;20462;-76
2023/04/22 04:27:33;;;;;;;10.30;8.83;;;11.90;99.90;;;;;;5012540;28;20410;-76
2023/04/22 04:29:59;;;;;;;9.80;8.90;;;11.90;99.90;;;;;;4994276;28;20421;-75
2023/04/22 04:32:25;;;;;;;10.73;9.73;;;11.80;99.90;;;;;;4994877;28;20497;-75
2023/04/22 04:34:51;;;;;;;9.77;8.90;;;11.80;99.90;;;;;;5011904;28;20882;-76
2023/04/22 04:37:17;;;;;;;10.00;9.13;;;11.80;99.90;;;;;;5012208;28;20461;-75
2023/04/22 04:39:43;;;;;;;10.33;9.43;;;11.80;99.90;;;;;;5011882;28;20211;-75
2023/04/22 04:42:09;;;;;;;10.17;9.20;;;11.90;99.90;;;;;;5012822;28;20473;-76
2023/04/22 04:44:35;;;;;;;9.93;9.10;;;11.90;99.90;;;;;;5012178;28;20265;-75
2023/04/22 04:47:02;;;;;;;10.00;9.10;;;11.90;99.90;;;;;;5011877;28;20639;-75
2023/04/22 04:49:29;;;;;;;11.07;10.07;;;11.90;99.90;;;;;;5012438;28;20449;-75
2023/04/22 04:51:56;;;;;;;10.57;9.67;;;12.00;99.90;;;;;;5011808;28;20394;-75
2023/04/22 04:54:22;;;;;;;10.50;9.50;;;12.00;99.90;;;;;;5012480;28;20450;-75
2023/04/22 04:56:48;;;;;;;11.33;10.27;;;12.00;99.90;;;;;;5011776;28;20924;-75
2023/04/22 04:59:13;;;;;;;10.30;9.30;;;12.10;99.90;;;;;;4994724;28;20417;-75
2023/04/22 05:01:39;;;;;;;10.43;9.53;;;12.00;99.90;;;;;;5011720;28;20182;-77
2023/04/22 05:04:05;;;;;;;10.20;9.27;;;12.10;99.90;;;;;;4994587;28;20224;-75
2023/04/22 05:06:31;;;;;;;10.70;9.73;;;12.10;99.90;;;;;;5011917;28;20214;-75
2023/04/22 05:08:57;;;;;;;10.83;9.83;;;12.10;99.90;;;;;;4994149;28;20183;-75
2023/04/22 05:11:23;;;;;;;14.80;9.50;;;12.10;99.90;;;;;;5012538;28;20929;-76
2023/04/22 05:13:49;;;;;;;10.33;9.43;;;12.10;99.90;;;;;;5011567;28;20415;-75
2023/04/22 05:16:15;;;;;;;10.30;9.40;;;12.10;99.90;;;;;;5012042;28;20554;-75
2023/04/22 05:18:40;;;;;;;10.17;9.27;;;12.10;99.90;;;;;;5012332;28;20180;-75
2023/04/22 05:21:06;;;;;;;10.83;9.93;;;12.20;99.90;;;;;;5015713;28;20519;-75
2023/04/22 05:23:32;;;;;;;11.67;10.00;;;12.20;99.90;;;;;;5015674;28;20217;-75
2023/04/22 05:25:58;;;;;;;10.23;9.37;;;12.20;99.90;;;;;;5014950;28;20879;-75
2023/04/22 05:28:24;;;;;;;10.77;9.77;;;12.20;99.90;;;;;;4998132;28;20216;-75
2023/04/22 05:30:49;;;;;;;10.40;9.50;;;12.20;99.90;;;;;;5014837;28;20226;-75
2023/04/22 05:33:15;;;;;;;11.40;10.30;;;12.20;99.90;;;;;;5015472;28;20416;-75
2023/04/22 05:35:41;;;;;;;10.50;9.60;;;12.30;99.90;;;;;;5014801;28;20531;-77
2023/04/22 05:38:07;;;;;;;11.30;10.20;;;12.30;99.90;;;;;;5015308;28;20220;-75
2023/04/22 05:40:33;;;;;;;11.13;9.73;;;12.30;99.90;;;;;;5015316;28;20416;-75
2023/04/22 05:42:58;;;;;;;11.77;10.67;;;12.30;99.90;;;;;;4997173;28;20194;-76
2023/04/22 05:45:24;;;;;;;11.93;10.73;;;12.30;99.90;;;;;;5015216;28;20172;-76
2023/04/22 05:47:50;;;;;;;13.13;11.83;;;12.40;99.90;;;;;;5014601;28;20184;-75
2023/04/22 05:50:15;;;;;;;12.07;10.37;;;12.30;99.90;;;;;;5015034;28;20235;-75
2023/04/22 05:52:41;;;;;;;10.97;9.83;;;12.30;99.90;;;;;;5015094;28;20176;-75
2023/04/22 05:55:07;;;;;;;11.40;10.20;;;12.40;99.90;;;;;;5015050;28;20185;-76
2023/04/22 05:57:33;;;;;;;13.23;10.80;;;12.50;99.90;;;;;;5015029;28;20405;-75
2023/04/22 05:59:59;;;;;;;11.33;10.33;;;12.50;99.90;;;;;;5014332;28;20418;-75
2023/04/22 06:02:25;;;;;;;11.50;10.53;;;12.60;99.90;;;;;;5014641;28;20608;-76
2023/04/22 06:04:51;;;;;;;11.20;10.20;;;12.60;99.90;;;;;;4996605;28;20459;-75
2023/04/22 06:07:17;;;;;;;11.57;10.47;;;12.70;99.90;;;;;;5014799;28;20625;-76
2023/04/22 06:09:42;;;;;;;11.20;10.00;;;12.70;99.90;;;;;;5015099;28;20635;-75
2023/04/22 06:12:10;;;;;;;13.00;10.87;;;12.70;99.90;;;;;;5014093;28;20211;-75
2023/04/22 06:14:35;;;;;;;11.50;10.53;;;12.80;99.90;;;;;;5014689;28;20178;-76
2023/04/22 06:17:01;;;;;;;11.97;10.77;;;12.90;99.90;;;;;;4996505;28;20927;-75
2023/04/22 06:19:27;;;;;;;11.53;10.53;;;12.90;99.90;;;;;;5014634;28;20174;-75
2023/04/22 06:21:53;;;;;;;11.43;10.33;;;13.00;99.90;;;;;;5013948;28;20225;-75
2023/04/22 06:24:18;;;;;;;13.80;11.03;;;13.00;99.90;;;;;;4996822;28;20538;-75
2023/04/22 06:26:44;;;;;;;12.50;11.20;;;13.10;99.90;;;;;;5013850;28;20182;-77
2023/04/22 06:29:10;;;;;;;12.40;11.20;;;13.10;99.90;;;;;;5013955;28;20182;-75
2023/04/22 06:31:36;;;;;;;11.83;10.80;;;13.20;99.90;;;;;;5014328;28;20174;-75
2023/04/22 06:34:01;;;;;;;12.67;11.37;;;13.30;99.90;;;;;;5013599;28;20206;-75
2023/04/22 06:36:27;;;;;;;13.23;12.13;;;13.30;99.90;;;;;;4996633;28;20632;-76
2023/04/22 06:38:53;;;;;;;13.20;11.97;;;13.40;99.90;;;;;;5013577;28;20313;-75
2023/04/22 06:41:21;;;;;;;13.00;11.80;;;13.50;99.90;;;;;;5014246;28;20813;-75
2023/04/22 06:43:48;;;;;;;15.10;13.63;;;13.60;99.90;;;;;;5013480;28;20808;-75
2023/04/22 06:46:15;;;;;;;14.53;13.13;;;13.60;99.90;;;;;;5013739;28;20446;-75
2023/04/22 06:48:41;;;;;;;14.03;12.83;;;13.70;99.90;;;;;;5013977;28;20434;-76
2023/04/22 06:51:07;;;;;;;15.30;13.77;;;13.80;99.90;;;;;;5013388;28;20441;-75
2023/04/22 06:53:33;;;;;;;13.97;12.77;;;13.90;99.90;;;;;;5013962;28;20457;-75
2023/04/22 06:55:58;;;;;;;13.70;12.33;;;13.90;99.90;;;;;;5013352;28;20182;-75
2023/04/22 06:58:24;;;;;;;12.53;11.43;;;14.00;99.90;;;;;;5013763;28;20262;-75
2023/04/22 07:00:50;;;;;;;15.70;14.10;;;14.10;99.90;;;;;;5013173;28;20207;-75
2023/04/22 07:03:16;;;;;;;15.30;13.87;;;14.20;99.90;;;;;;5013490;28;20655;-76
2023/04/22 07:05:41;;;;;;;15.40;14.10;;;14.30;99.90;;;;;;5013353;28;20222;-75
2023/04/22 07:08:07;;;;;;;13.93;12.47;;;14.40;99.90;;;;;;4995604;28;20529;-76
2023/04/22 07:10:33;;;;;;;12.00;11.00;;;14.50;99.90;;;;;;5013776;28;20195;-75
2023/04/22 07:12:59;;;;;;;11.50;10.30;;;14.60;99.90;;;;;;4995645;28;20647;-75
2023/04/22 07:15:24;;;;;;;10.13;9.23;;;14.70;99.90;;;;;;5013845;28;20178;-76
2023/04/22 07:17:50;;;;;;;5.80;5.43;;;14.80;99.90;;;;;;4995441;28;20885;-75
2023/04/22 07:20:16;;;;;;;5.03;4.70;;;14.80;99.90;;;;;;5013460;28;20409;-75
2023/04/22 07:22:42;;;;;;;5.00;4.70;;;14.70;99.90;;;;;;5013345;28;20185;-76
2023/04/22 07:25:08;;;;;;;4.80;4.50;;;14.70;99.90;;;;;;5012738;28;20255;-76
2023/04/22 07:27:37;;;;;;;4.87;4.50;;;14.80;99.90;;;;;;5013437;28;20245;-77
2023/04/22 07:30:05;;;;;;;6.07;5.57;;;14.90;99.90;;;;;;5012675;28;20408;-75
2023/04/22 07:32:31;;;;;;;5.97;5.57;;;15.10;99.90;;;;;;5013354;28;20409;-76
2023/04/22 07:34:56;;;;;;;4.87;4.67;;;15.20;99.90;;;;;;5012720;28;20912;-76
2023/04/22 07:37:25;;;;;;;5.00;4.70;;;15.40;99.90;;;;;;5010783;28;20304;-76
2023/04/22 07:39:51;;;;;;;4.67;4.37;;;15.60;99.90;;;;;;5003940;28;20487;-76
2023/04/22 07:42:16;;;;;;;5.20;4.90;;;15.70;99.90;;;;;;5012426;28;20209;-77
2023/04/22 07:44:42;;;;;;;4.73;4.43;;;15.90;99.90;;;;;;5013007;28;20202;-76
2023/04/22 07:47:08;;;;;;;4.00;3.80;;;16.00;99.90;;;;;;5012456;28;20657;-77
2023/04/22 07:49:33;;;;;;;5.00;4.70;;;16.10;99.90;;;;;;4995593;28;20178;-77
2023/04/22 07:51:59;;;;;;;4.77;4.37;;;16.10;99.90;;;;;;5012452;28;20171;-77
2023/04/22 07:54:25;;;;;;;5.53;5.03;;;16.30;99.90;;;;;;5012962;28;20268;-76
2023/04/22 07:56:50;;;;;;;6.80;6.20;;;16.40;99.90;;;;;;5012362;28;20504;-76
2023/04/22 07:59:16;;;;;;;4.83;4.53;;;16.50;99.90;;;;;;5012718;28;20171;-78
2023/04/22 08:01:42;;;;;;;5.43;5.03;;;16.60;99.90;;;;;;5013037;28;20282;-76
2023/04/22 08:04:08;;;;;;;5.30;4.90;;;16.80;99.90;;;;;;5012111;28;20237;-77
2023/04/22 08:06:33;;;;;;;4.10;3.90;;;16.90;99.60;;;;;;4995307;28;20179;-77
2023/04/22 08:08:59;;;;;;;4.47;4.17;;;17.10;99.00;;;;;;5012313;28;20167;-77
2023/04/22 08:11:25;;;;;;;4.80;4.50;;;17.20;99.40;;;;;;5012724;28;20187;-78
2023/04/22 08:13:51;;;;;;;5.17;4.87;;;17.30;98.00;;;;;;5012173;28;20211;-78
2023/04/22 08:16:17;;;;;;;5.27;4.97;;;17.50;99.30;;;;;;5012737;28;20437;-78
2023/04/22 08:18:43;;;;;;;5.00;4.60;;;17.70;98.60;;;;;;5012682;28;20697;-78
2023/04/22 08:21:08;;;;;;;4.80;4.50;;;17.80;96.20;;;;;;4994350;28;20442;-77
2023/04/22 08:23:34;;;;;;;4.40;4.10;;;17.80;95.10;;;;;;5012370;28;20583;-77
2023/04/22 08:26:00;;;;;;;5.57;5.27;;;17.90;96.30;;;;;;5012393;28;20171;-78
2023/04/22 08:28:26;;;;;;;6.67;4.70;;;18.10;97.50;;;;;;5009488;28;20179;-77
2023/04/22 08:30:51;;;;;;;5.40;5.00;;;18.30;96.40;;;;;;5002686;28;20417;-79
2023/04/22 08:33:17;;;;;;;4.30;4.00;;;18.40;95.30;;;;;;5002802;28;20209;-77
2023/04/22 08:35:45;;;;;;;6.47;4.47;;;18.30;95.00;;;;;;5001340;28;20178;-77
2023/04/22 08:38:11;;;;;;;4.70;4.10;;;18.40;94.50;;;;;;5003121;28;20314;-76
2023/04/22 08:40:40;;;;;;;5.00;4.60;;;18.50;93.70;;;;;;5000980;28;20816;-77
2023/04/22 08:43:06;;;;;;;4.97;4.67;;;18.50;94.00;;;;;;5001921;28;20167;-77
2023/04/22 08:45:32;;;;;;;4.20;4.00;;;18.70;95.00;;;;;;4985298;28;20415;-77
2023/04/22 08:47:59;;;;;;;4.70;4.30;;;18.70;93.00;;;;;;4998013;28;20503;-77
2023/04/22 08:50:25;;;;;;;4.77;4.50;;;18.80;93.20;;;;;;4985202;28;20438;-77
2023/04/22 08:52:51;;;;;;;4.70;4.40;;;18.90;92.90;;;;;;5003662;28;20431;-77
2023/04/22 08:55:18;;;;;;;4.47;4.17;;;18.80;91.80;;;;;;5004297;28;20407;-77
2023/04/22 08:57:44;;;;;;;4.50;4.30;;;18.70;92.20;;;;;;5006532;28;20418;-78
2023/04/22 09:00:11;;;;;;;4.33;4.03;;;18.70;92.00;;;;;;5001117;28;20469;-77
2023/04/22 09:02:40;;;;;;;4.80;4.50;;;18.60;91.20;;;;;;4996312;28;20407;-77
2023/04/22 09:05:09;;;;;;;4.77;4.47;;;18.70;92.10;;;;;;4995830;28;20486;-77
2023/04/22 09:07:35;;;;;;;4.17;3.87;;;18.80;92.20;;;;;;4996127;28;20502;-77
2023/04/22 09:10:01;;;;;;;4.40;4.17;;;18.90;92.10;;;;;;4977929;28;20427;-76
2023/04/22 09:12:27;;;;;;;3.90;3.70;;;19.00;92.50;;;;;;5013889;28;20499;-77
2023/04/22 09:14:53;;;;;;;4.70;4.40;;;19.20;92.60;;;;;;5015851;28;20904;-76
2023/04/22 09:17:33;;;;;;;4.30;4.10;;;19.10;91.20;;;;;;5015691;28;20900;-76
2023/04/22 09:20:00;;;;;;;4.83;4.43;;;19.10;92.50;;;;;;5015427;28;20413;-77
2023/04/22 09:22:28;;;;;;;4.10;3.90;;;19.20;91.90;;;;;;5015714;28;20398;-76
2023/04/22 09:24:54;;;;;;;4.63;4.20;;;19.40;91.50;;;;;;5015572;28;20458;-76
2023/04/22 09:27:23;;;;;;;3.97;3.77;;;19.30;90.50;;;;;;4997896;28;20417;-76
2023/04/22 09:29:51;;;;;;;4.10;3.80;;;19.30;90.80;;;;;;5015886;28;20421;-76
2023/04/22 09:32:17;;;;;;;4.50;3.73;;;19.20;90.50;;;;;;5014888;28;20402;-76
2023/04/22 09:34:54;;;;;;;3.90;3.70;;;19.20;90.70;;;;;;5015480;28;20545;-77
2023/04/22 09:37:22;;;;;;;4.17;3.87;;;19.30;91.80;;;;;;5014556;28;20453;-77
2023/04/22 09:39:49;;;;;;;4.50;3.90;;;19.50;89.70;;;;;;5015156;28;20893;-76
2023/04/22 09:42:15;;;;;;;4.00;3.80;;;19.70;90.90;;;;;;5014663;28;20766;-76
2023/04/22 09:44:41;;;;;;;4.40;4.20;;;19.80;89.00;;;;;;4981652;28;20537;-77
2023/04/22 09:47:09;;;;;;;4.30;4.10;;;20.00;90.10;;;;;;5014525;28;20509;-76
2023/04/22 09:49:38;;;;;;;21.80;17.67;;;20.30;88.30;;;;;;5016356;28;20182;-77
2023/04/22 09:52:04;;;;;;;10.53;9.53;;;20.30;84.70;;;;;;5017116;28;20414;-77
2023/04/22 09:54:30;;;;;;;4.50;4.20;;;20.30;85.60;;;;;;4996745;28;20451;-76
2023/04/22 09:56:55;;;;;;;6.13;5.63;;;20.40;86.40;;;;;;5014930;28;20469;-77
2023/04/22 09:59:24;;;;;;;4.67;4.37;;;20.60;83.00;;;;;;5015005;28;20238;-77
2023/04/22 10:01:53;;;;;;;4.47;4.17;;;20.70;82.00;;;;;;5014925;28;20419;-76
2023/04/22 10:04:24;;;;;;;4.60;4.20;;;20.60;81.40;;;;;;5013200;28;20449;-76
2023/04/22 10:06:51;;;;;;;15.83;11.60;;;20.40;81.40;;;;;;5014874;28;20390;-77
2023/04/22 10:09:19;;;;;;;16.93;13.87;;;20.50;81.70;;;;;;5014411;28;20414;-76
2023/04/22 10:11:45;;;;;;;4.35;4.15;;;20.50;81.40;;;;;;5013821;28;20450;-77
2023/04/22 10:14:12;;;;;;;4.33;4.03;;;20.60;79.40;;;;;;5014067;28;20175;-76
2023/04/22 10:16:41;;;;;;;4.20;3.90;;;20.70;79.00;;;;;;5014709;28;20402;-77
2023/04/22 10:19:12;;;;;;;4.23;4.03;;;20.80;79.90;;;;;;5013797;28;21148;-77
2023/04/22 10:21:40;;;;;;;3.97;3.77;;;21.10;79.30;;;;;;5014810;28;20398;-78
2023/04/22 10:24:06;;;;;;;4.50;4.20;;;21.20;79.50;;;;;;5014049;28;20453;-79
2023/04/22 10:26:52;;;;;;;4.80;4.50;;;21.40;77.20;;;;;;5014498;28;20410;-77
2023/04/22 10:29:19;;;;;;;4.03;3.83;;;21.50;78.90;;;;;;5013603;28;20813;-77
2023/04/22 10:32:02;;;;;;;4.43;4.17;;;21.60;78.10;;;;;;5014383;28;20429;-77
2023/04/22 10:34:31;;;;;;;4.37;4.00;;;21.60;74.90;;;;;;5014234;28;20410;-77
2023/04/22 10:37:05;;;;;;;4.20;4.00;;;21.50;76.80;;;;;;5014326;28;20999;-77
2023/04/22 10:39:31;;;;;;;4.10;3.90;;;21.70;75.50;;;;;;5014354;28;20474;-77
2023/04/22 10:42:05;;;;;;;4.37;4.07;;;21.70;75.90;;;;;;5014178;28;20406;-77
2023/04/22 10:44:59;;;;;;;4.40;4.10;;;21.80;76.50;;;;;;5014134;28;20242;-77
2023/04/22 10:47:25;;;;;;;4.10;3.90;;;21.90;77.30;;;;;;5014247;28;20443;-77
2023/04/22 10:50:07;;;;;;;4.60;4.20;;;21.90;75.60;;;;;;5014496;28;20422;-78
2023/04/22 10:52:33;;;;;;;4.40;4.10;;;22.10;75.10;;;;;;5014086;28;20409;-77
2023/04/22 10:55:00;;;;;;;4.57;4.37;;;22.30;75.80;;;;;;5014004;28;20406;-77
2023/04/22 10:57:36;;;;;;;4.30;4.00;;;22.30;74.50;;;;;;5014109;28;20256;-78
2023/04/22 11:00:22;;;;;;;4.10;3.80;;;22.40;76.70;;;;;;4996482;28;20402;-77
2023/04/22 11:03:04;;;;;;;4.90;4.50;;;22.40;74.30;;;;;;5013987;28;20440;-78
2023/04/22 11:05:31;;;;;;;4.43;4.03;;;22.30;75.10;;;;;;4996344;28;20433;-78
2023/04/22 11:08:12;;;;;;;4.37;4.07;;;22.10;74.90;;;;;;4995971;28;20894;-77
2023/04/22 11:10:45;;;;;;;5.47;4.10;;;22.20;75.50;;;;;;5013698;28;20766;-78
2023/04/22 11:13:18;;;;;;;3.93;3.73;;;22.30;73.80;;;;;;5013004;28;20409;-78
2023/04/22 11:15:49;;;;;;;5.13;4.83;;;22.00;73.00;;;;;;5013621;28;20501;-78
2023/04/22 11:18:20;;;;;;;4.20;4.00;;;21.70;74.10;;;;;;4995550;28;20973;-78
2023/04/22 11:20:48;;;;;;;5.13;4.83;;;21.70;76.90;;;;;;5013810;28;20402;-77
2023/04/22 11:23:23;;;;;;;5.40;5.00;;;21.80;76.30;;;;;;5012947;28;20410;-78
2023/04/22 11:25:58;;;;;;;5.00;4.60;;;21.90;76.50;;;;;;5013582;28;20410;-78
2023/04/22 11:28:24;;;;;;;4.77;4.47;;;21.90;75.70;;;;;;5012903;28;20394;-78
2023/04/22 11:30:51;;;;;;;4.97;4.67;;;21.80;75.60;;;;;;5013400;28;20748;-77
2023/04/22 11:33:18;;;;;;;5.17;4.73;;;21.50;74.90;;;;;;4995311;28;20440;-78
2023/04/22 11:35:44;;;;;;;4.63;4.43;;;21.40;76.60;;;;;;5013219;28;20756;-77
2023/04/22 11:38:10;;;;;;;4.63;4.43;;;21.50;77.70;;;;;;5012486;28;20445;-78
2023/04/22 11:40:42;;;;;;;4.30;4.10;;;21.60;75.90;;;;;;5012950;28;20431;-77
2023/04/22 11:43:08;;;;;;;5.00;4.70;;;21.60;78.20;;;;;;5012424;28;20175;-78
2023/04/22 11:45:37;;;;;;;5.07;4.47;;;21.70;75.80;;;;;;4995965;28;20414;-78
2023/04/22 11:48:05;;;;;;;4.67;4.30;;;21.80;75.60;;;;;;5012391;28;20454;-79
2023/04/22 11:50:34;;;;;;;4.57;4.27;;;21.80;76.30;;;;;;5013017;28;20490;-78
2023/04/22 11:53:11;;;;;;;5.43;4.37;;;21.60;75.70;;;;;;5013054;28;20406;-78
2023/04/22 11:55:38;;;;;;;4.70;4.40;;;21.70;76.10;;;;;;5013046;28;20409;-78
2023/04/22 11:58:08;;;;;;;7.37;4.80;;;21.70;76.00;;;;;;5012390;28;20768;-79
2023/04/22 12:00:36;;;;;;;5.07;4.70;;;21.80;77.60;;;;;;5012898;28;20920;-78
2023/04/22 12:03:03;;;;;;;5.73;4.40;;;21.70;75.30;;;;;;5012880;28;20418;-78
2023/04/22 12:05:43;;;;;;;4.10;3.90;;;21.70;75.50;;;;;;5012800;28;20426;-78
2023/04/22 12:08:15;;;;;;;4.87;4.53;;;21.70;74.80;;;;;;4994706;28;20413;-78
2023/04/22 12:10:43;;;;;;;4.93;4.63;;;21.70;75.10;;;;;;5012865;28;20408;-79
2023/04/22 12:13:17;;;;;;;4.33;4.03;;;21.50;75.10;;;;;;4994907;28;20410;-79
2023/04/22 12:15:43;;;;;;;4.20;3.90;;;21.40;75.40;;;;;;5012920;28;20406;-79
2023/04/22 12:18:10;;;;;;;5.33;4.50;;;21.30;76.10;;;;;;5012185;28;20402;-79
2023/04/22 12:20:38;;;;;;;5.03;4.60;;;21.40;76.00;;;;;;5012824;28;20785;-79
2023/04/22 12:23:05;;;;;;;5.23;4.93;;;21.40;77.20;;;;;;5012704;28;20410;-79
2023/04/22 12:25:32;;;;;;;5.43;5.13;;;21.50;77.10;;;;;;4995169;28;20775;-79
2023/04/22 12:27:59;;;;;;;6.07;4.60;;;21.70;77.90;;;;;;4996863;28;20421;-79
2023/04/22 12:30:25;;;;;;;5.13;4.63;;;21.80;77.20;;;;;;5016083;28;20711;-79
2023/04/22 12:32:51;;;;;;;4.10;3.90;;;21.90;75.60;;;;;;5016627;28;20765;-78
2023/04/22 12:35:17;;;;;;;47.73;36.80;;;22.00;75.90;;;;;;5015940;28;20282;-79
2023/04/22 12:37:43;;;;;;;31.90;24.07;;;22.00;76.50;;;;;;5016252;28;20453;-79
2023/04/22 12:40:09;;;;;;;5.43;5.03;;;22.10;74.30;;;;;;5015906;28;20174;-79
2023/04/22 12:42:35;;;;;;;4.30;4.10;;;21.90;73.60;;;;;;5016316;28;20203;-78